Time;durP1;ratioP1;P1;durP2;ratioP2;P2;SDS_P1;SDS_P2;PMS_P1;PMS_P2;Temp;Humidity;BMP_temperature;BMP_pressure;BME280_temperature;BME280_humidity;BME280_pressure;Samples;Min_cycle;Max_cycle;Signal;HPM_P1;HPM_P2
2021/04/19 00:00:41;;;;;;;48.95;29.52;;;9.40;99.90;;;;;;5051023;28;20463;-49
2021/04/19 00:03:06;;;;;;;42.17;28.13;;;9.40;99.90;;;;;;5051044;28;20028;-47
2021/04/19 00:05:32;;;;;;;42.97;28.77;;;9.30;99.90;;;;;;5051021;28;20021;-47
2021/04/19 00:07:57;;;;;;;45.75;31.08;;;9.30;99.90;;;;;;5050168;28;20548;-47
2021/04/19 00:10:24;;;;;;;45.60;28.10;;;9.30;99.90;;;;;;5050858;28;20474;-47
2021/04/19 00:12:50;;;;;;;42.45;29.42;;;9.30;99.90;;;;;;5049065;28;20036;-47
2021/04/19 00:15:18;;;;;;;48.75;30.50;;;9.30;99.90;;;;;;5049245;28;20040;-47
2021/04/19 00:17:44;;;;;;;40.75;28.08;;;9.20;99.90;;;;;;5050150;28;20028;-46
2021/04/19 00:20:11;;;;;;;42.22;26.40;;;9.20;99.90;;;;;;5050488;28;20025;-46
2021/04/19 00:22:37;;;;;;;38.63;24.33;;;9.10;99.90;;;;;;5050438;28;20022;-47
2021/04/19 00:25:04;;;;;;;41.60;25.42;;;9.10;99.90;;;;;;5050359;28;20187;-47
2021/04/19 00:27:29;;;;;;;41.97;26.98;;;9.10;99.90;;;;;;5049727;28;20111;-46
2021/04/19 00:29:55;;;;;;;38.97;25.38;;;9.10;99.90;;;;;;5048955;28;20131;-47
2021/04/19 00:32:20;;;;;;;44.92;27.27;;;9.10;99.90;;;;;;5050753;28;20364;-47
2021/04/19 00:34:46;;;;;;;39.95;26.17;;;9.10;99.90;;;;;;5050514;28;20067;-46
2021/04/19 00:37:12;;;;;;;36.33;25.42;;;9.00;99.90;;;;;;5050491;28;20036;-47
2021/04/19 00:39:37;;;;;;;39.88;26.05;;;9.00;99.90;;;;;;5049825;28;20047;-46
2021/04/19 00:42:04;;;;;;;38.30;25.25;;;9.00;99.90;;;;;;5050348;28;20067;-46
2021/04/19 00:44:30;;;;;;;37.83;25.27;;;9.00;99.90;;;;;;5050076;28;20029;-46
2021/04/19 00:46:55;;;;;;;37.20;24.80;;;9.00;99.90;;;;;;5050272;28;20090;-46
2021/04/19 00:49:23;;;;;;;41.15;28.10;;;9.10;99.90;;;;;;5049716;28;20017;-48
2021/04/19 00:51:49;;;;;;;36.08;24.83;;;9.00;99.90;;;;;;5050041;28;20056;-50
2021/04/19 00:54:15;;;;;;;36.80;25.60;;;9.00;99.90;;;;;;5049924;28;20057;-48
2021/04/19 00:56:41;;;;;;;39.67;26.52;;;9.00;99.90;;;;;;5049971;28;20017;-50
2021/04/19 00:59:07;;;;;;;40.67;26.38;;;9.10;99.90;;;;;;5049013;28;20028;-47
2021/04/19 01:01:33;;;;;;;42.35;26.67;;;9.10;99.90;;;;;;5048441;28;20381;-47
2021/04/19 01:04:00;;;;;;;37.85;25.35;;;9.10;99.90;;;;;;5049820;28;20024;-47
2021/04/19 01:06:26;;;;;;;44.00;28.20;;;9.00;99.90;;;;;;5029874;28;20032;-49
2021/04/19 01:08:51;;;;;;;40.42;27.50;;;9.00;99.90;;;;;;5029188;28;20104;-47
2021/04/19 01:11:17;;;;;;;44.70;27.25;;;9.10;99.90;;;;;;5029755;28;20554;-48
2021/04/19 01:13:43;;;;;;;45.90;28.08;;;9.00;99.90;;;;;;5029394;28;20645;-48
2021/04/19 01:16:08;;;;;;;41.65;27.83;;;9.00;99.90;;;;;;5029770;28;20391;-48
2021/04/19 01:18:34;;;;;;;43.50;28.33;;;9.00;99.90;;;;;;5029016;28;20281;-46
2021/04/19 01:20:59;;;;;;;45.08;28.80;;;9.00;99.90;;;;;;5029804;28;20033;-55
2021/04/19 01:23:25;;;;;;;39.08;26.13;;;9.00;99.90;;;;;;5029540;28;20075;-48
2021/04/19 01:25:51;;;;;;;47.75;29.58;;;9.00;99.90;;;;;;5029716;28;20106;-51
2021/04/19 01:28:18;;;;;;;57.05;31.13;;;9.10;99.90;;;;;;5029180;28;20072;-47
2021/04/19 01:30:46;;;;;;;45.30;29.40;;;9.00;99.90;;;;;;5029912;28;20033;-50
2021/04/19 01:33:12;;;;;;;45.28;29.85;;;9.00;99.90;;;;;;5028346;28;20026;-47
2021/04/19 01:35:39;;;;;;;45.35;27.75;;;9.00;99.90;;;;;;5028571;28;20586;-50
2021/04/19 01:38:09;;;;;;;46.58;29.08;;;9.00;99.90;;;;;;5028282;28;20114;-49
2021/04/19 01:40:35;;;;;;;;;;;9.00;99.90;;;;;;5025893;28;20040;-50
2021/04/19 01:43:01;;;;;;;37.05;25.00;;;8.90;99.90;;;;;;5027304;28;19905;-50
2021/04/19 01:45:26;;;;;;;39.33;26.42;;;8.80;99.90;;;;;;5029530;28;20022;-50
2021/04/19 01:47:54;;;;;;;37.83;25.40;;;8.80;99.90;;;;;;5027115;28;20037;-46
2021/04/19 01:50:23;;;;;;;43.70;27.52;;;8.80;99.90;;;;;;5029132;28;20056;-48
2021/04/19 01:52:49;;;;;;;37.08;24.20;;;8.80;99.90;;;;;;5028903;28;20189;-46
2021/04/19 01:55:22;;;;;;;40.88;25.85;;;8.80;99.90;;;;;;5029349;28;20033;-49
2021/04/19 01:58:04;;;;;;;41.13;25.88;;;8.80;99.90;;;;;;5028426;28;20044;-47
2021/04/19 02:00:32;;;;;;;42.28;26.25;;;8.80;99.90;;;;;;5028898;28;20044;-46
2021/04/19 02:03:06;;;;;;;36.67;24.02;;;8.80;99.90;;;;;;5027797;28;20140;-46
2021/04/19 02:06:02;;;;;;;41.35;26.60;;;8.80;99.90;;;;;;5027402;28;20049;-47
2021/04/19 02:08:49;;;;;;;43.30;26.60;;;8.80;99.90;;;;;;5030413;28;20467;-46
2021/04/19 02:11:24;;;;;;;42.13;26.63;;;8.70;99.90;;;;;;5027935;28;20063;-46
2021/04/19 02:14:09;;;;;;;43.08;26.30;;;8.70;99.90;;;;;;5027111;28;20043;-45
2021/04/19 02:16:55;;;;;;;39.50;24.83;;;8.70;99.90;;;;;;5028079;28;20410;-45
2021/04/19 02:19:42;;;;;;;39.78;24.92;;;8.70;99.90;;;;;;5025372;28;20095;-45
2021/04/19 02:22:15;;;;;;;40.78;25.88;;;8.60;99.90;;;;;;5028552;28;20117;-46
2021/04/19 02:24:47;;;;;;;39.55;26.05;;;8.60;99.90;;;;;;5028623;28;20060;-46
2021/04/19 02:27:37;;;;;;;40.78;26.35;;;8.60;99.90;;;;;;5028661;28;20032;-46
2021/04/19 02:30:26;;;;;;;39.50;25.08;;;8.50;99.90;;;;;;5028384;28;20033;-46
2021/04/19 02:32:53;;;;;;;34.85;23.35;;;8.60;99.90;;;;;;5028403;28;20060;-46
2021/04/19 02:35:23;;;;;;;40.90;26.73;;;8.60;99.90;;;;;;5028775;28;20025;-45
2021/04/19 02:37:52;;;;;;;41.38;26.50;;;8.50;99.90;;;;;;5028009;28;20030;-47
2021/04/19 02:40:18;;;;;;;39.13;24.70;;;8.50;99.90;;;;;;5027905;28;20048;-45
2021/04/19 02:42:48;;;;;;;34.78;23.98;;;8.50;99.90;;;;;;5028479;28;20112;-46
2021/04/19 02:45:15;;;;;;;41.85;26.08;;;8.50;99.90;;;;;;5027058;28;20691;-49
2021/04/19 02:47:46;;;;;;;37.85;25.00;;;8.40;99.90;;;;;;5031904;28;20030;-47
2021/04/19 02:50:17;;;;;;;37.15;24.02;;;8.50;99.90;;;;;;5032628;28;20021;-48
2021/04/19 02:52:44;;;;;;;41.80;25.85;;;8.50;99.90;;;;;;5032454;28;20029;-46
2021/04/19 02:55:11;;;;;;;36.30;23.17;;;8.50;99.90;;;;;;5031008;28;20033;-45
2021/04/19 02:57:50;;;;;;;42.72;26.08;;;8.40;99.90;;;;;;5031630;28;20136;-47
2021/04/19 03:00:17;;;;;;;37.88;24.58;;;8.50;99.90;;;;;;5032030;28;20034;-46
2021/04/19 03:02:44;;;;;;;36.72;25.73;;;8.40;99.90;;;;;;5031760;28;20053;-46
2021/04/19 03:05:13;;;;;;;38.65;25.02;;;8.30;99.90;;;;;;5032169;28;20021;-45
2021/04/19 03:07:44;;;;;;;37.35;24.20;;;8.20;99.90;;;;;;5031234;28;20025;-46
2021/04/19 03:10:13;;;;;;;38.10;24.05;;;8.20;99.90;;;;;;5032114;28;20049;-46
2021/04/19 03:12:42;;;;;;;36.80;23.25;;;8.30;99.90;;;;;;5031965;28;20045;-46
2021/04/19 03:15:12;;;;;;;35.08;23.40;;;8.20;99.90;;;;;;5031791;28;20056;-48
2021/04/19 03:17:39;;;;;;;33.17;22.40;;;8.20;99.90;;;;;;5031143;28;20128;-46
2021/04/19 03:20:13;;;;;;;35.13;23.70;;;8.20;99.90;;;;;;5031727;28;20052;-46
2021/04/19 03:22:42;;;;;;;33.35;21.95;;;8.20;99.90;;;;;;5031745;28;20022;-47
2021/04/19 03:25:09;;;;;;;39.45;23.70;;;8.10;99.90;;;;;;5031773;28;20029;-46
2021/04/19 03:27:38;;;;;;;34.28;22.83;;;8.10;99.90;;;;;;5031131;28;20056;-46
2021/04/19 03:30:06;;;;;;;32.97;23.08;;;8.10;99.90;;;;;;5031421;28;20055;-45
2021/04/19 03:32:34;;;;;;;36.47;23.15;;;8.10;99.90;;;;;;5031674;28;20060;-46
2021/04/19 03:35:04;;;;;;;33.60;21.98;;;8.10;99.90;;;;;;5028965;28;20052;-45
2021/04/19 03:37:32;;;;;;;31.77;21.52;;;8.10;99.90;;;;;;5030015;28;20598;-47
2021/04/19 03:40:02;;;;;;;32.30;19.88;;;8.10;99.90;;;;;;5030272;28;20048;-45
2021/04/19 03:42:30;;;;;;;31.73;20.10;;;8.00;99.90;;;;;;5031031;28;20027;-45
2021/04/19 03:44:57;;;;;;;31.23;20.92;;;8.00;99.90;;;;;;5030533;28;20031;-47
2021/04/19 03:47:25;;;;;;;30.65;21.25;;;8.00;99.90;;;;;;5027863;28;20056;-45
2021/04/19 03:49:56;;;;;;;37.17;23.65;;;8.00;99.90;;;;;;5030734;28;20040;-46
2021/04/19 03:52:27;;;;;;;31.73;21.98;;;8.00;99.90;;;;;;5028184;28;20036;-46
2021/04/19 03:54:54;;;;;;;33.45;21.88;;;8.00;99.90;;;;;;5031129;28;20030;-44
2021/04/19 03:57:22;;;;;;;31.15;21.48;;;8.00;99.90;;;;;;5028944;28;20030;-45
2021/04/19 03:59:53;;;;;;;31.35;20.58;;;7.90;99.90;;;;;;5028947;28;20044;-44
2021/04/19 04:02:21;;;;;;;33.60;22.17;;;7.80;99.90;;;;;;5030806;28;20064;-45
2021/04/19 04:04:47;;;;;;;32.40;21.65;;;7.70;99.90;;;;;;5030830;28;20045;-45
2021/04/19 04:07:15;;;;;;;38.10;22.05;;;7.70;99.90;;;;;;5029606;28;20021;-46
2021/04/19 04:09:44;;;;;;;31.30;20.65;;;7.70;99.90;;;;;;5030408;28;20037;-46
2021/04/19 04:12:11;;;;;;;30.77;20.63;;;7.70;99.90;;;;;;5030844;28;20033;-45
2021/04/19 04:14:49;;;;;;;29.98;20.55;;;7.70;99.90;;;;;;5030684;28;20033;-46
2021/04/19 04:17:15;;;;;;;28.23;19.27;;;7.70;99.90;;;;;;5030771;28;20476;-46
2021/04/19 04:19:41;;;;;;;29.75;18.73;;;7.70;99.90;;;;;;5028897;28;20044;-46
2021/04/19 04:22:09;;;;;;;27.30;18.58;;;7.60;99.90;;;;;;5030606;28;20033;-45
2021/04/19 04:24:38;;;;;;;27.85;18.58;;;7.70;99.90;;;;;;5030577;28;20029;-46
2021/04/19 04:27:05;;;;;;;25.10;18.00;;;7.70;99.90;;;;;;5030629;28;20534;-44
2021/04/19 04:29:30;;;;;;;27.60;18.88;;;7.60;99.90;;;;;;5029407;28;20056;-48
2021/04/19 04:31:56;;;;;;;26.33;18.55;;;7.60;99.90;;;;;;5030694;28;20030;-44
2021/04/19 04:34:21;;;;;;;25.98;18.40;;;7.70;99.90;;;;;;5030659;28;20017;-44
2021/04/19 04:36:47;;;;;;;28.38;19.17;;;7.70;99.90;;;;;;5030661;28;20029;-44
2021/04/19 04:39:13;;;;;;;23.85;17.02;;;7.70;99.90;;;;;;5028193;28;20022;-44
2021/04/19 04:41:38;;;;;;;29.63;18.33;;;7.60;99.90;;;;;;5030796;28;20045;-44
2021/04/19 04:44:06;;;;;;;29.30;18.35;;;7.60;99.90;;;;;;5029849;28;20029;-45
2021/04/19 04:47:00;;;;;;;30.50;18.95;;;7.70;99.90;;;;;;5030763;28;20375;-44
2021/04/19 04:49:37;;;;;;;28.13;17.75;;;7.70;99.90;;;;;;5027393;28;20116;-44
2021/04/19 04:52:06;;;;;;;26.52;17.35;;;7.70;99.90;;;;;;5029945;28;20022;-45
2021/04/19 04:54:33;;;;;;;35.13;22.20;;;7.80;99.90;;;;;;5027261;28;20029;-45
2021/04/19 04:57:01;;;;;;;33.17;19.40;;;7.80;99.90;;;;;;5029566;28;20021;-45
2021/04/19 04:59:29;;;;;;;34.88;20.33;;;7.80;99.90;;;;;;5028738;28;20033;-45
2021/04/19 05:01:56;;;;;;;32.70;19.70;;;7.70;99.90;;;;;;5028864;28;20017;-46
2021/04/19 05:04:23;;;;;;;39.15;20.67;;;7.70;99.90;;;;;;5028396;28;20021;-46
2021/04/19 05:06:48;;;;;;;35.95;21.10;;;7.80;99.90;;;;;;5046083;28;20019;-45
2021/04/19 05:09:15;;;;;;;38.30;19.95;;;7.70;99.90;;;;;;5027739;28;20121;-44
2021/04/19 05:11:43;;;;;;;39.53;20.27;;;7.80;99.90;;;;;;5028382;28;20026;-43
2021/04/19 05:14:09;;;;;;;38.42;19.92;;;7.80;99.90;;;;;;5028994;28;20021;-46
2021/04/19 05:16:34;;;;;;;47.97;20.42;;;7.80;99.90;;;;;;5044314;28;20029;-44
2021/04/19 05:19:02;;;;;;;42.63;19.90;;;7.90;99.90;;;;;;5042191;28;20087;-45
2021/04/19 05:21:28;;;;;;;44.95;21.95;;;7.90;99.90;;;;;;5029575;28;20104;-45
2021/04/19 05:23:54;;;;;;;46.70;21.30;;;7.80;99.90;;;;;;5029408;28;20033;-45
2021/04/19 05:26:21;;;;;;;47.85;22.83;;;7.80;99.90;;;;;;5029199;28;20490;-44
2021/04/19 05:28:48;;;;;;;45.88;20.92;;;7.80;99.90;;;;;;5028227;28;20450;-45
2021/04/19 05:31:15;;;;;;;45.78;21.10;;;7.80;99.90;;;;;;5029543;28;20505;-45
2021/04/19 05:33:40;;;;;;;50.67;23.17;;;7.80;99.90;;;;;;5029309;28;20061;-45
2021/04/19 05:36:11;;;;;;;46.40;22.95;;;7.90;99.90;;;;;;5029763;28;20061;-45
2021/04/19 05:38:37;;;;;;;52.28;23.20;;;7.90;99.90;;;;;;5028329;28;20036;-44
2021/04/19 05:41:04;;;;;;;51.95;24.15;;;7.90;99.90;;;;;;5008735;28;20037;-44
2021/04/19 05:43:30;;;;;;;49.63;23.75;;;7.90;99.90;;;;;;5009277;28;20110;-49
2021/04/19 05:45:58;;;;;;;43.00;20.95;;;7.90;99.90;;;;;;5009315;28;20018;-45
2021/04/19 05:48:24;;;;;;;48.80;24.58;;;7.90;99.90;;;;;;5019718;28;20037;-44
2021/04/19 05:50:54;;;;;;;47.10;25.05;;;8.00;99.90;;;;;;5027783;28;20029;-47
2021/04/19 05:53:20;;;;;;;50.83;24.92;;;8.00;99.90;;;;;;5028948;28;20121;-45
2021/04/19 05:55:46;;;;;;;48.33;23.55;;;8.00;99.90;;;;;;5029814;28;20112;-44
2021/04/19 05:58:20;;;;;;;51.63;24.55;;;8.00;99.90;;;;;;5028278;28;20033;-45
2021/04/19 06:00:52;;;;;;;45.13;24.30;;;8.00;99.90;;;;;;5026323;28;20029;-45
2021/04/19 06:03:26;;;;;;;42.60;23.88;;;8.00;99.90;;;;;;5028704;28;20053;-45
2021/04/19 06:06:17;;;;;;;41.85;22.73;;;8.00;99.90;;;;;;5028743;28;20106;-45
2021/04/19 06:08:43;;;;;;;50.30;24.98;;;8.00;99.90;;;;;;5028143;28;20036;-44
2021/04/19 06:11:16;;;;;;;44.58;23.83;;;8.00;99.90;;;;;;5008256;28;20749;-45
2021/04/19 06:13:44;;;;;;;44.67;24.92;;;8.10;99.90;;;;;;5009040;28;20439;-45
2021/04/19 06:16:11;;;;;;;45.08;24.25;;;8.00;99.90;;;;;;5009119;28;20021;-45
2021/04/19 06:18:40;;;;;;;44.83;25.73;;;8.10;99.90;;;;;;5008287;28;20022;-45
2021/04/19 06:21:06;;;;;;;44.00;23.85;;;8.00;99.90;;;;;;5007372;28;20085;-46
2021/04/19 06:23:34;;;;;;;40.35;23.35;;;8.00;99.90;;;;;;5008883;28;20072;-45
2021/04/19 06:25:59;;;;;;;42.35;24.80;;;8.10;99.90;;;;;;5008596;28;20022;-44
2021/04/19 06:28:25;;;;;;;37.78;22.52;;;8.10;99.90;;;;;;5008370;28;20037;-45
2021/04/19 06:30:52;;;;;;;45.78;23.95;;;8.20;99.90;;;;;;5008780;28;20484;-46
2021/04/19 06:33:19;;;;;;;41.28;24.27;;;8.20;99.90;;;;;;5008831;28;20046;-48
2021/04/19 06:35:46;;;;;;;44.05;24.83;;;8.20;99.90;;;;;;5009053;28;20440;-48
2021/04/19 06:38:12;;;;;;;36.88;22.73;;;8.40;99.90;;;;;;5008191;28;20022;-48
2021/04/19 06:40:41;;;;;;;39.13;24.13;;;8.40;99.90;;;;;;5022632;28;20147;-45
2021/04/19 06:43:06;;;;;;;42.40;22.73;;;8.30;99.90;;;;;;5028414;28;20021;-47
2021/04/19 06:45:33;;;;;;;43.55;24.02;;;8.40;99.90;;;;;;5027126;28;20029;-47
2021/04/19 06:48:02;;;;;;;40.97;23.85;;;8.50;99.90;;;;;;5028020;28;20029;-46
2021/04/19 06:50:28;;;;;;;40.28;22.80;;;8.50;99.90;;;;;;5026962;28;20029;-46
2021/04/19 06:52:54;;;;;;;36.00;22.52;;;8.60;99.90;;;;;;5028450;28;20693;-46
2021/04/19 06:55:20;;;;;;;41.25;23.98;;;8.60;99.90;;;;;;5028017;28;20071;-46
2021/04/19 06:57:52;;;;;;;32.50;21.15;;;8.60;99.90;;;;;;5027530;28;20071;-46
2021/04/19 07:00:19;;;;;;;38.53;22.13;;;8.60;99.90;;;;;;5026706;28;20117;-47
2021/04/19 07:02:59;;;;;;;36.70;23.00;;;8.60;99.90;;;;;;5028212;28;20502;-46
2021/04/19 07:05:29;;;;;;;39.08;23.35;;;8.70;99.90;;;;;;5028273;28;20105;-46
2021/04/19 07:08:17;;;;;;;37.90;23.17;;;8.70;99.90;;;;;;5026223;28;20527;-45
2021/04/19 07:10:44;;;;;;;37.45;22.48;;;8.70;99.90;;;;;;5028121;28;20074;-45
2021/04/19 07:13:12;;;;;;;31.25;20.73;;;8.70;99.90;;;;;;5028409;28;20072;-48
2021/04/19 07:15:46;;;;;;;33.15;20.15;;;8.80;99.90;;;;;;5028313;28;20026;-45
2021/04/19 07:18:13;;;;;;;33.50;22.15;;;8.80;99.90;;;;;;5027720;28;20025;-46
2021/04/19 07:20:39;;;;;;;33.15;21.13;;;8.90;99.90;;;;;;5028280;28;20064;-46
2021/04/19 07:23:05;;;;;;;32.70;20.55;;;8.90;99.90;;;;;;5028465;28;20096;-45
2021/04/19 07:25:31;;;;;;;31.67;20.77;;;9.00;99.90;;;;;;5028027;28;20056;-45
2021/04/19 07:27:58;;;;;;;29.60;20.02;;;9.00;99.90;;;;;;5027390;28;20067;-45
2021/04/19 07:30:24;;;;;;;33.10;20.55;;;9.20;99.90;;;;;;5028275;28;20323;-46
2021/04/19 07:32:50;;;;;;;29.67;19.80;;;9.10;99.90;;;;;;5029032;28;20506;-45
2021/04/19 07:35:15;;;;;;;34.22;19.83;;;9.10;99.90;;;;;;5032075;28;20036;-46
2021/04/19 07:37:56;;;;;;;36.33;23.50;;;9.10;99.90;;;;;;5031303;28;20061;-48
2021/04/19 07:40:29;;;;;;;35.38;21.92;;;9.10;99.90;;;;;;5030872;28;20044;-46
2021/04/19 07:43:20;;;;;;;36.03;23.45;;;9.00;99.90;;;;;;5031577;28;20097;-46
2021/04/19 07:46:08;;;;;;;36.55;22.35;;;8.90;99.90;;;;;;5031561;28;20022;-45
2021/04/19 07:48:37;;;;;;;42.50;24.40;;;9.00;99.90;;;;;;5030977;28;20028;-46
2021/04/19 07:51:41;;;;;;;36.40;24.17;;;8.90;99.90;;;;;;5031692;28;20029;-45
2021/04/19 07:54:21;;;;;;;39.35;22.60;;;8.90;99.90;;;;;;4989172;28;20038;-45
2021/04/19 07:56:52;;;;;;;40.10;24.13;;;8.80;99.90;;;;;;4988937;28;20527;-48
2021/04/19 07:59:26;;;;;;;40.88;23.75;;;8.80;99.90;;;;;;5013435;28;20041;-46
2021/04/19 08:02:01;;;;;;;36.97;23.77;;;8.80;99.90;;;;;;5029795;28;20033;-46
2021/04/19 08:04:28;;;;;;;40.40;24.23;;;8.90;99.90;;;;;;5031166;28;20037;-45
2021/04/19 08:06:53;;;;;;;40.13;24.30;;;9.00;99.90;;;;;;5031275;28;20026;-46
2021/04/19 08:09:23;;;;;;;38.25;22.98;;;9.00;99.90;;;;;;5030761;28;20073;-45
2021/04/19 08:11:51;;;;;;;37.22;23.48;;;8.90;99.90;;;;;;5029783;28;20237;-48
2021/04/19 08:14:17;;;;;;;36.80;21.77;;;8.90;99.90;;;;;;5030510;28;20444;-49
2021/04/19 08:16:43;;;;;;;35.38;23.63;;;9.10;99.90;;;;;;5029744;28;20076;-45
2021/04/19 08:19:09;;;;;;;33.97;20.92;;;9.20;99.90;;;;;;5029307;28;20469;-46
2021/04/19 08:21:35;;;;;;;43.00;24.15;;;9.20;99.90;;;;;;5029616;28;20036;-45
2021/04/19 08:24:12;;;;;;;39.13;23.90;;;9.30;99.90;;;;;;5029881;28;20017;-45
2021/04/19 08:26:58;;;;;;;38.80;23.55;;;9.40;99.90;;;;;;5028425;28;20021;-45
2021/04/19 08:29:47;;;;;;;37.60;23.42;;;9.30;99.90;;;;;;5024421;28;20065;-45
2021/04/19 08:32:15;;;;;;;42.03;24.35;;;9.30;99.90;;;;;;5025774;28;20022;-44
2021/04/19 08:34:42;;;;;;;35.88;21.92;;;9.30;99.90;;;;;;5029403;28;20105;-45
2021/04/19 08:37:09;;;;;;;41.42;23.90;;;9.20;99.90;;;;;;5025614;28;20022;-45
2021/04/19 08:39:35;;;;;;;39.72;24.17;;;9.20;99.90;;;;;;5028272;28;20105;-45
2021/04/19 08:42:02;;;;;;;43.80;25.23;;;9.20;99.90;;;;;;5026882;28;20065;-46
2021/04/19 08:44:32;;;;;;;36.58;22.02;;;9.20;99.90;;;;;;5028817;28;20033;-48
2021/04/19 08:46:59;;;;;;;36.75;22.27;;;9.30;99.90;;;;;;5030184;28;20029;-47
2021/04/19 08:49:25;;;;;;;35.08;21.48;;;9.40;99.90;;;;;;5028937;28;20044;-45
2021/04/19 08:51:52;;;;;;;35.38;20.08;;;9.40;99.90;;;;;;5025090;28;20386;-46
2021/04/19 08:54:17;;;;;;;31.77;20.15;;;9.50;99.90;;;;;;5028707;28;20041;-45
2021/04/19 08:56:43;;;;;;;33.95;20.90;;;9.50;99.90;;;;;;5027945;28;20056;-46
2021/04/19 08:59:09;;;;;;;33.45;20.98;;;9.70;99.90;;;;;;5028560;28;20030;-45
2021/04/19 09:01:35;;;;;;;30.73;19.40;;;9.80;99.90;;;;;;5029451;28;20026;-45
2021/04/19 09:04:06;;;;;;;29.38;20.88;;;9.90;99.90;;;;;;5029341;28;20037;-45
2021/04/19 09:06:46;;;;;;;35.40;22.33;;;10.00;99.90;;;;;;5028878;28;20383;-45
2021/04/19 09:09:14;;;;;;;32.90;20.83;;;10.20;99.90;;;;;;5028490;28;20036;-45
2021/04/19 09:11:41;;;;;;;29.80;18.92;;;10.50;99.90;;;;;;5029105;28;20063;-45
2021/04/19 09:14:10;;;;;;;29.90;18.23;;;10.70;99.90;;;;;;5029012;28;20033;-45
2021/04/19 09:16:41;;;;;;;35.53;20.95;;;11.00;99.90;;;;;;5029099;28;20075;-45
2021/04/19 09:19:07;;;;;;;40.00;23.73;;;11.50;99.90;;;;;;5028791;28;20083;-48
2021/04/19 09:21:47;;;;;;;31.60;20.60;;;12.00;99.90;;;;;;5029247;28;20136;-48
2021/04/19 09:24:17;;;;;;;29.73;19.88;;;12.50;99.90;;;;;;5029359;28;20419;-48
2021/04/19 09:26:58;;;;;;;27.20;19.07;;;13.10;99.90;;;;;;5028773;28;20029;-48
2021/04/19 09:29:30;;;;;;;;;;;13.40;99.90;;;;;;5027404;28;20040;-51
2021/04/19 09:32:03;;;;;;;28.75;20.33;;;14.20;99.90;;;;;;5029215;28;19905;-50
2021/04/19 09:34:49;;;;;;;24.63;18.55;;;15.20;99.90;;;;;;5028072;28;20423;-50
2021/04/19 09:37:20;;;;;;;27.33;19.65;;;15.90;99.90;;;;;;5027197;28;20121;-48
2021/04/19 09:39:46;;;;;;;21.40;16.80;;;14.70;99.90;;;;;;5027296;28;20018;-47
2021/04/19 09:42:13;;;;;;;24.90;20.15;;;14.90;99.90;;;;;;5029096;28;20051;-49
2021/04/19 09:44:55;;;;;;;25.45;19.33;;;16.20;99.90;;;;;;5028863;28;20014;-51
2021/04/19 09:47:46;;;;;;;23.58;17.80;;;17.10;96.70;;;;;;5028281;28;20487;-51
2021/04/19 09:50:14;;;;;;;21.35;16.83;;;17.50;95.50;;;;;;5028740;28;20033;-50
2021/04/19 09:52:41;;;;;;;21.92;16.70;;;17.90;91.80;;;;;;5028509;28;20060;-50
2021/04/19 09:55:07;;;;;;;16.20;13.27;;;17.40;91.40;;;;;;5027011;28;20033;-50
2021/04/19 09:57:33;;;;;;;17.27;13.05;;;17.50;91.50;;;;;;5027219;28;20037;-49
2021/04/19 10:00:00;;;;;;;17.45;13.02;;;16.80;93.20;;;;;;5028178;28;20029;-49
2021/04/19 10:02:27;;;;;;;19.48;14.73;;;16.20;94.40;;;;;;5028064;28;20017;-48
2021/04/19 10:04:54;;;;;;;17.88;14.15;;;15.70;96.70;;;;;;5027704;28;20463;-50
2021/04/19 10:07:20;;;;;;;19.23;13.80;;;15.50;97.50;;;;;;5027438;28;20021;-49
2021/04/19 10:09:46;;;;;;;21.00;13.95;;;15.30;99.20;;;;;;5026583;28;20401;-48
2021/04/19 10:12:20;;;;;;;17.30;13.50;;;15.40;97.90;;;;;;5027624;28;20034;-49
2021/04/19 10:14:46;;;;;;;18.77;15.38;;;15.40;97.90;;;;;;5027602;28;20032;-46
2021/04/19 10:17:22;;;;;;;18.58;13.38;;;15.30;98.00;;;;;;5027478;28;20029;-47
2021/04/19 10:19:48;;;;;;;24.30;15.60;;;15.00;99.90;;;;;;5026275;28;20100;-48
2021/04/19 10:22:16;;;;;;;20.25;14.88;;;14.50;99.90;;;;;;5027602;28;20379;-49
2021/04/19 10:24:52;;;;;;;22.65;15.63;;;14.30;99.90;;;;;;5027321;28;20033;-48
2021/04/19 10:27:28;;;;;;;21.58;16.23;;;14.30;99.90;;;;;;5024146;28;20025;-47
2021/04/19 10:29:55;;;;;;;22.35;16.13;;;14.70;99.90;;;;;;5026265;28;20200;-48
2021/04/19 10:32:30;;;;;;;22.05;15.98;;;14.80;99.90;;;;;;5025928;28;20449;-50
2021/04/19 10:34:56;;;;;;;27.02;17.40;;;15.20;99.90;;;;;;5027559;28;20025;-48
2021/04/19 10:37:21;;;;;;;22.63;16.95;;;15.20;99.90;;;;;;5026293;28;20025;-47
2021/04/19 10:39:47;;;;;;;24.63;17.73;;;15.20;99.90;;;;;;5025971;28;20067;-48
2021/04/19 10:42:12;;;;;;;26.63;18.38;;;15.20;99.90;;;;;;5027680;28;20045;-47
2021/04/19 10:44:41;;;;;;;24.30;18.38;;;14.80;99.90;;;;;;5027682;28;20034;-48
2021/04/19 10:47:08;;;;;;;24.35;18.17;;;14.80;99.90;;;;;;5028001;28;20121;-49
2021/04/19 10:49:34;;;;;;;25.25;16.80;;;14.80;99.90;;;;;;5027427;28;20108;-49
2021/04/19 10:52:02;;;;;;;21.92;15.70;;;14.90;99.90;;;;;;5026847;28;20108;-48
2021/04/19 10:54:34;;;;;;;23.73;17.48;;;15.00;99.90;;;;;;5027771;28;20022;-50
2021/04/19 10:57:02;;;;;;;23.80;17.70;;;15.50;99.90;;;;;;5028008;28;20257;-48
2021/04/19 10:59:28;;;;;;;25.30;17.52;;;16.50;99.90;;;;;;5025195;28;20060;-50
2021/04/19 11:02:08;;;;;;;22.38;15.90;;;16.40;98.60;;;;;;5028097;28;20025;-49
2021/04/19 11:04:35;;;;;;;25.05;18.77;;;16.40;99.90;;;;;;5027723;28;20032;-49
2021/04/19 11:07:27;;;;;;;27.42;18.88;;;16.00;99.90;;;;;;5029187;28;20116;-49
2021/04/19 11:10:13;;;;;;;19.55;15.63;;;15.90;99.90;;;;;;5028826;28;20112;-50
2021/04/19 11:12:40;;;;;;;21.13;16.75;;;16.60;99.90;;;;;;5029354;28;20025;-51
2021/04/19 11:15:12;;;;;;;18.75;15.27;;;17.20;99.40;;;;;;5029531;28;20483;-51
2021/04/19 11:17:38;;;;;;;21.20;16.30;;;17.70;96.00;;;;;;5028901;28;20052;-51
2021/04/19 11:20:21;;;;;;;16.27;13.25;;;18.30;92.90;;;;;;5030856;28;20033;-50
2021/04/19 11:22:47;;;;;;;20.35;14.65;;;18.30;89.80;;;;;;5029529;28;20252;-51
2021/04/19 11:25:30;;;;;;;17.58;15.15;;;17.60;91.30;;;;;;5029388;28;20506;-49
2021/04/19 11:28:16;;;;;;;18.13;14.27;;;17.70;92.60;;;;;;5026797;28;20021;-48
2021/04/19 11:30:42;;;;;;;18.52;14.85;;;17.60;91.90;;;;;;5029143;28;20088;-50
2021/04/19 11:33:21;;;;;;;19.17;15.18;;;17.60;93.50;;;;;;5029386;28;20029;-50
2021/04/19 11:35:49;;;;;;;19.38;15.18;;;17.00;93.30;;;;;;5028626;28;20040;-53
2021/04/19 11:38:17;;;;;;;20.60;17.35;;;16.70;94.30;;;;;;5028447;28;20036;-47
2021/04/19 11:40:46;;;;;;;25.10;17.52;;;16.40;94.40;;;;;;5028230;28;20033;-48
2021/04/19 11:43:18;;;;;;;23.10;16.58;;;16.20;96.90;;;;;;5029615;28;20024;-50
2021/04/19 11:45:44;;;;;;;21.63;16.25;;;16.00;97.90;;;;;;5029803;28;20510;-47
2021/04/19 11:48:11;;;;;;;22.52;15.90;;;15.90;97.00;;;;;;5026659;28;20029;-55
2021/04/19 11:50:39;;;;;;;20.88;16.33;;;15.80;97.90;;;;;;5029521;28;20021;-48
2021/04/19 11:53:05;;;;;;;23.17;16.88;;;15.60;98.70;;;;;;5029671;28;20040;-49
2021/04/19 11:55:30;;;;;;;21.15;15.75;;;15.70;98.00;;;;;;5028345;28;20033;-49
2021/04/19 11:57:57;;;;;;;19.13;13.98;;;15.50;98.20;;;;;;5029051;28;20026;-48
2021/04/19 12:00:22;;;;;;;21.05;15.40;;;15.50;99.40;;;;;;5028183;28;20475;-48
2021/04/19 12:02:49;;;;;;;27.77;20.65;;;15.50;99.40;;;;;;5029642;28;20079;-50
2021/04/19 12:05:15;;;;;;;28.50;20.38;;;15.50;99.70;;;;;;5029256;28;20448;-48
2021/04/19 12:07:40;;;;;;;25.38;18.05;;;15.60;99.20;;;;;;5028898;28;20030;-48
2021/04/19 12:10:07;;;;;;;31.70;22.63;;;15.70;99.90;;;;;;5029065;28;20034;-48
2021/04/19 12:12:33;;;;;;;22.88;16.90;;;15.60;99.90;;;;;;5027841;28;20033;-48
2021/04/19 12:14:58;;;;;;;24.23;16.25;;;16.00;99.90;;;;;;5029133;28;20170;-49
2021/04/19 12:17:25;;;;;;;22.45;16.13;;;17.00;99.90;;;;;;5029231;28;20510;-51
2021/04/19 12:19:50;;;;;;;19.83;15.93;;;17.60;98.00;;;;;;5029548;28;20542;-48
2021/04/19 12:22:16;;;;;;;22.35;16.48;;;17.80;93.50;;;;;;5030262;28;20156;-48
2021/04/19 12:24:41;;;;;;;22.13;17.08;;;17.80;93.40;;;;;;5027255;28;20030;-48
2021/04/19 12:27:07;;;;;;;20.77;15.40;;;17.80;92.50;;;;;;5029864;28;20029;-50
2021/04/19 12:29:33;;;;;;;20.95;16.13;;;18.00;91.00;;;;;;5028175;28;20025;-49
2021/04/19 12:31:59;;;;;;;24.23;17.35;;;17.50;92.90;;;;;;5029749;28;20025;-49
2021/04/19 12:34:24;;;;;;;26.92;18.63;;;17.60;93.10;;;;;;5029659;28;20030;-49
2021/04/19 12:36:54;;;;;;;21.23;16.27;;;17.50;91.50;;;;;;5030571;28;20490;-49
2021/04/19 12:39:20;;;;;;;22.67;16.93;;;17.20;93.00;;;;;;5029459;28;20118;-48
2021/04/19 12:41:46;;;;;;;22.27;16.92;;;17.00;94.90;;;;;;5028550;28;20369;-50
2021/04/19 12:44:12;;;;;;;28.17;19.40;;;17.10;93.50;;;;;;5028873;28;20025;-48
2021/04/19 12:46:37;;;;;;;23.58;17.48;;;16.70;94.40;;;;;;5031162;28;20048;-49